YAUG weather

Augusta Airport
Western Australia, Australia

Public forecast

Using degrees Celsius for public forecast. Weather courtesy of forecast.io.

Closest aviation weather report (METAR) to Augusta Airport

Closest report is Albany Airport, 135.8 nm (251.5 km) ESE. Retrieved 2019/10/22 15:30 UTC (0 seconds ago):

YABA 221530Z AUTO 01003KT 1200 // SCT042 13/13 Q1015

Closest aviation forecast (TAF) to Augusta Airport

Forecast is more than 12 hours old.

Closest forecast is Perth Jandakot Airport, 141.1 nm (261.3 km) NNE. Retrieved 2019/10/21 12:00 UTC (1 day ago):

TAF YPJT 211103Z 2112/2206 23010KT CAVOK FM211400 19005KT 9999 SCT012 FM212000 13005KT 9999 FEW020 FM220200 25013KT CAVOK